Time;durP1;ratioP1;P1;durP2;ratioP2;P2;SDS_P1;SDS_P2;PMS_P1;PMS_P2;Temp;Humidity;BMP_temperature;BMP_pressure;BME280_temperature;BME280_humidity;BME280_pressure;Samples;Min_cycle;Max_cycle;Signal;HPM_P1;HPM_P2
2024/02/20 00:00:13;;;;;;;8.13;3.58;;;;;;;9.34;77.42;97506.47;4887388;29;20082;-80
2024/02/20 00:02:41;;;;;;;5.47;3.65;;;;;;;9.33;77.59;97511.81;4888406;29;20116;-80
2024/02/20 00:05:09;;;;;;;6.45;3.70;;;;;;;9.34;78.19;97501.28;4932403;23;20507;-78
2024/02/20 00:07:37;;;;;;;5.93;3.95;;;;;;;9.34;77.35;97508.28;4924827;29;20063;-79
2024/02/20 00:10:08;;;;;;;6.38;4.18;;;;;;;9.34;78.28;97500.47;4926101;29;20056;-81
2024/02/20 00:12:37;;;;;;;7.03;3.95;;;;;;;9.33;77.69;97507.44;4915957;29;20051;-82
2024/02/20 00:15:06;;;;;;;6.25;3.55;;;;;;;9.32;77.78;97513.63;4896075;29;20120;-80
2024/02/20 00:17:34;;;;;;;6.63;3.65;;;;;;;9.30;77.31;97505.13;4889194;29;20053;-82
2024/02/20 00:20:03;;;;;;;6.32;4.15;;;;;;;9.30;78.40;97506.94;4887077;29;20449;-80
2024/02/20 00:22:30;;;;;;;4.78;3.47;;;;;;;9.30;78.89;97502.53;4889836;29;20082;-81
2024/02/20 00:24:58;;;;;;;4.03;3.53;;;;;;;9.32;78.40;97500.59;4889327;29;20048;-80
2024/02/20 00:27:28;;;;;;;5.47;3.78;;;;;;;9.31;78.43;97498.94;4889548;29;20144;-80
2024/02/20 00:29:56;;;;;;;5.60;3.67;;;;;;;9.31;78.26;97504.16;4889844;29;20063;-79
2024/02/20 00:32:23;;;;;;;6.68;3.80;;;;;;;9.28;78.17;97499.25;4888965;29;20410;-79
2024/02/20 00:34:51;;;;;;;4.40;3.00;;;;;;;9.28;78.50;97504.47;4887848;29;20049;-80
2024/02/20 00:37:20;;;;;;;4.60;3.28;;;;;;;9.26;78.50;97503.81;4888257;29;20053;-77
2024/02/20 00:39:48;;;;;;;6.38;3.60;;;;;;;9.27;79.17;97501.06;4888355;29;20063;-79
2024/02/20 00:42:15;;;;;;;5.03;3.50;;;;;;;9.32;79.04;97503.22;4888313;29;20060;-77
2024/02/20 00:44:44;;;;;;;4.18;3.00;;;;;;;9.34;78.87;97497.84;4887758;29;20077;-78
2024/02/20 00:47:12;;;;;;;4.70;3.42;;;;;;;9.37;79.11;97502.75;4887993;29;20053;-79
2024/02/20 00:49:40;;;;;;;4.05;3.45;;;;;;;9.36;78.89;97503.69;4888324;29;20081;-79
2024/02/20 00:52:08;;;;;;;5.10;3.60;;;;;;;9.36;78.49;97501.94;4887502;29;20132;-80
2024/02/20 00:54:40;;;;;;;4.25;3.30;;;;;;;9.33;78.31;97504.00;4886596;29;20052;-79
2024/02/20 00:57:09;;;;;;;7.50;3.25;;;;;;;9.32;78.66;97495.38;4889128;29;20114;-80
2024/02/20 00:59:37;;;;;;;4.63;3.38;;;;;;;9.32;78.65;97491.97;4887773;29;20045;-79
2024/02/20 01:02:10;;;;;;;4.15;3.30;;;;;;;9.33;78.76;97498.81;4887186;29;20096;-79
2024/02/20 01:04:39;;;;;;;3.97;3.40;;;;;;;9.33;79.23;97491.00;4886634;29;20057;-79
2024/02/20 01:07:07;;;;;;;5.40;3.63;;;;;;;9.33;78.40;97501.41;4888066;29;20053;-81
2024/02/20 01:09:35;;;;;;;7.10;3.92;;;;;;;9.32;78.40;97500.59;4888213;29;20077;-77
2024/02/20 01:12:03;;;;;;;4.40;3.80;;;;;;;9.31;79.00;97493.75;4887934;29;20053;-79
2024/02/20 01:14:31;;;;;;;6.35;4.38;;;;;;;9.31;78.97;97498.13;4887290;29;20057;-79
2024/02/20 01:16:58;;;;;;;7.93;3.67;;;;;;;9.28;78.69;97496.66;4888248;29;20053;-79
2024/02/20 01:19:27;;;;;;;3.97;3.58;;;;;;;9.23;78.45;97497.13;4886777;29;20057;-79
2024/02/20 01:21:55;;;;;;;4.30;3.15;;;;;;;9.21;78.37;97491.25;4887248;29;20056;-79
2024/02/20 01:24:23;;;;;;;4.25;3.80;;;;;;;9.20;78.35;97500.00;4886086;29;20520;-78
2024/02/20 01:26:50;;;;;;;4.80;4.15;;;;;;;9.21;78.16;97504.25;4887191;29;20057;-78
2024/02/20 01:29:21;;;;;;;5.30;3.92;;;;;;;9.19;78.05;97494.97;4885778;29;20072;-80
2024/02/20 01:31:49;;;;;;;6.00;3.95;;;;;;;9.19;78.38;97500.19;4885880;29;20053;-81
2024/02/20 01:34:17;;;;;;;4.93;4.00;;;;;;;9.17;78.55;97502.09;4889350;29;20444;-81
2024/02/20 01:36:46;;;;;;;7.63;4.30;;;;;;;9.17;78.94;97505.53;4890185;29;20086;-79
2024/02/20 01:39:14;;;;;;;4.15;3.75;;;;;;;9.17;79.01;97500.31;4889846;29;20064;-79
2024/02/20 01:41:43;;;;;;;5.93;4.10;;;;;;;9.21;79.61;97506.06;4888921;29;20513;-82
2024/02/20 01:44:11;;;;;;;6.45;3.92;;;;;;;9.22;79.46;97512.88;4889559;29;20506;-80
2024/02/20 01:46:38;;;;;;;4.78;3.85;;;;;;;9.23;79.39;97506.72;4888574;29;20410;-77
2024/02/20 01:49:06;;;;;;;4.45;4.03;;;;;;;9.23;78.98;97514.53;4888467;29;20112;-78
2024/02/20 01:51:36;;;;;;;5.70;3.83;;;;;;;9.24;79.24;97523.97;4887809;29;20080;-79
2024/02/20 01:54:05;;;;;;;6.85;3.97;;;;;;;9.26;78.81;97522.03;4889641;29;20048;-78
2024/02/20 01:56:35;;;;;;;4.18;3.78;;;;;;;9.23;78.43;97520.53;4888845;29;20116;-79
2024/02/20 01:59:04;;;;;;;6.80;5.32;;;;;;;9.19;78.43;97516.59;4888292;29;20057;-77
2024/02/20 02:01:32;;;;;;;7.30;4.28;;;;;;;9.14;78.03;97512.81;4887193;29;20521;-79
2024/02/20 02:04:00;;;;;;;6.78;4.05;;;;;;;9.10;78.19;97514.09;4887151;29;20144;-79
2024/02/20 02:06:29;;;;;;;6.63;4.35;;;;;;;9.07;78.34;97513.44;4887644;29;20425;-78
2024/02/20 02:08:57;;;;;;;5.10;3.78;;;;;;;9.06;77.97;97511.78;4887504;29;20124;-77
2024/02/20 02:11:25;;;;;;;4.50;3.83;;;;;;;9.06;78.32;97519.59;4887871;29;20474;-78
2024/02/20 02:13:53;;;;;;;7.13;3.60;;;;;;;9.04;77.78;97507.69;4885657;29;20053;-79
2024/02/20 02:16:21;;;;;;;6.30;3.28;;;;;;;9.02;77.76;97515.63;4885848;29;20153;-80
2024/02/20 02:18:49;;;;;;;5.28;3.42;;;;;;;9.03;78.03;97516.44;4889693;29;20076;-80
2024/02/20 02:21:18;;;;;;;3.97;3.25;;;;;;;9.04;77.84;97507.69;4889216;29;20498;-80
2024/02/20 02:23:46;;;;;;;4.00;3.10;;;;;;;9.03;77.41;97516.44;4889605;29;20632;-79
2024/02/20 02:26:15;;;;;;;4.60;2.88;;;;;;;9.02;77.57;97514.81;4889058;29;20072;-79
2024/02/20 02:28:47;;;;;;;3.30;3.00;;;;;;;9.01;77.22;97511.41;4887411;29;20120;-80
2024/02/20 02:31:16;;;;;;;3.75;3.08;;;;;;;8.99;77.15;97509.94;4888166;29;20133;-78
2024/02/20 02:33:46;;;;;;;5.07;3.25;;;;;;;8.98;76.95;97514.31;4887508;29;20053;-81
2024/02/20 02:36:14;;;;;;;3.65;2.85;;;;;;;8.97;77.32;97510.06;4888277;29;20057;-79
2024/02/20 02:38:42;;;;;;;3.60;2.95;;;;;;;8.98;77.31;97509.09;4888350;29;20514;-80
2024/02/20 02:41:12;;;;;;;5.88;3.28;;;;;;;8.99;77.05;97510.75;4887956;29;20113;-79
2024/02/20 02:43:41;;;;;;;5.90;2.78;;;;;;;8.99;76.96;97515.94;4887056;29;20135;-79
2024/02/20 02:46:11;;;;;;;4.28;2.75;;;;;;;8.98;76.92;97516.91;4887403;29;20049;-77
2024/02/20 02:48:38;;;;;;;4.35;2.78;;;;;;;8.96;76.69;97521.44;4887790;29;20076;-76
2024/02/20 02:51:08;;;;;;;2.90;2.60;;;;;;;8.95;76.60;97516.41;4887188;29;20109;-78
2024/02/20 02:53:35;;;;;;;4.95;3.10;;;;;;;8.92;76.89;97517.53;4886792;29;20132;-78
2024/02/20 02:56:08;;;;;;;5.57;3.17;;;;;;;8.93;77.21;97518.34;4886087;29;20524;-78
2024/02/20 02:58:36;;;;;;;5.68;3.80;;;;;;;8.91;76.86;97513.28;4885784;29;20052;-78
2024/02/20 03:01:05;;;;;;;5.05;3.45;;;;;;;8.89;76.81;97524.78;4886053;29;20059;-78
2024/02/20 03:03:33;;;;;;;3.78;3.30;;;;;;;8.87;76.75;97533.56;4885457;29;20048;-77
2024/02/20 03:06:05;;;;;;;5.97;3.45;;;;;;;8.87;77.68;97537.94;4885465;29;20113;-77
2024/02/20 03:08:33;;;;;;;3.85;2.88;;;;;;;8.88;77.44;97539.59;4886903;29;20587;-77
2024/02/20 03:11:00;;;;;;;4.00;3.60;;;;;;;8.88;77.19;97539.59;4886366;29;20505;-79
2024/02/20 03:13:28;;;;;;;6.38;3.90;;;;;;;8.84;77.34;97541.66;4886205;29;20091;-79
2024/02/20 03:15:56;;;;;;;5.43;3.67;;;;;;;8.82;77.56;97545.38;4886111;29;20061;-79
2024/02/20 03:18:25;;;;;;;5.45;3.75;;;;;;;8.82;77.79;97545.38;4886058;29;20481;-79
2024/02/20 03:20:52;;;;;;;8.52;4.30;;;;;;;8.81;77.97;97541.97;4885258;29;20060;-78
2024/02/20 03:23:20;;;;;;;6.35;3.63;;;;;;;8.82;77.74;97547.97;4884734;29;20123;-79
2024/02/20 03:25:48;;;;;;;5.03;3.92;;;;;;;8.82;77.93;97555.78;4884090;29;20145;-78
2024/02/20 03:28:15;;;;;;;6.25;4.03;;;;;;;8.82;77.61;97561.81;4884599;29;20125;-77
2024/02/20 03:30:43;;;;;;;5.55;4.30;;;;;;;8.81;77.92;97551.53;4884620;29;20061;-79
2024/02/20 03:33:11;;;;;;;4.82;4.03;;;;;;;8.80;78.25;97562.91;4884563;29;20046;-79
2024/02/20 03:35:40;;;;;;;7.38;3.95;;;;;;;8.79;78.29;97563.88;4883771;29;20140;-79
2024/02/20 03:38:09;;;;;;;9.55;4.60;;;;;;;8.79;78.49;97575.13;4884889;29;20478;-78
2024/02/20 03:40:36;;;;;;;8.63;4.47;;;;;;;8.79;78.71;97582.09;4884626;29;20084;-80
2024/02/20 03:43:04;;;;;;;5.40;4.07;;;;;;;8.80;78.86;97578.53;4883880;29;20060;-77
2024/02/20 03:45:32;;;;;;;5.53;3.85;;;;;;;8.82;78.32;97582.63;4884067;29;20057;-77
2024/02/20 03:47:59;;;;;;;9.07;4.40;;;;;;;8.82;78.36;97584.41;4883933;29;20506;-79
2024/02/20 03:50:27;;;;;;;4.65;3.40;;;;;;;8.81;78.08;97585.34;4883402;29;20052;-77
2024/02/20 03:52:56;;;;;;;4.75;3.40;;;;;;;8.81;78.07;97595.75;4883903;29;20057;-78
2024/02/20 03:55:24;;;;;;;7.15;3.78;;;;;;;8.80;78.03;97594.13;4882181;29;20143;-79
2024/02/20 03:57:51;;;;;;;7.60;3.85;;;;;;;8.81;78.08;97590.56;4882523;29;20049;-77
2024/02/20 04:00:24;;;;;;;6.53;3.50;;;;;;;8.81;77.58;97599.22;4882942;29;20064;-80
2024/02/20 04:02:53;;;;;;;5.57;3.88;;;;;;;8.80;77.73;97604.53;4882650;29;20147;-78
2024/02/20 04:05:21;;;;;;;4.82;3.33;;;;;;;8.80;77.79;97607.97;4881227;29;20140;-78
2024/02/20 04:07:48;;;;;;;6.45;3.95;;;;;;;8.80;77.77;97609.75;4882252;29;20081;-79
2024/02/20 04:10:18;;;;;;;5.65;3.30;;;;;;;8.79;77.76;97608.94;4882445;29;20483;-78
2024/02/20 04:12:46;;;;;;;4.63;2.97;;;;;;;8.77;77.53;97610.06;4882190;29;20502;-77
2024/02/20 04:15:14;;;;;;;5.15;3.40;;;;;;;8.74;77.24;97612.94;4882057;29;20510;-78
2024/02/20 04:17:42;;;;;;;3.70;2.78;;;;;;;8.73;77.50;97619.09;4881968;29;20063;-77
2024/02/20 04:20:11;;;;;;;5.57;3.25;;;;;;;8.71;77.04;97621.84;4881612;29;20048;-79
2024/02/20 04:22:39;;;;;;;6.60;3.05;;;;;;;8.71;77.17;97615.81;4881946;29;20136;-82
2024/02/20 04:25:08;;;;;;;6.40;3.75;;;;;;;8.70;76.68;97624.59;4884624;29;20120;-82
2024/02/20 04:27:38;;;;;;;5.57;3.35;;;;;;;8.67;76.85;97625.69;4883696;29;20045;-78
2024/02/20 04:30:08;;;;;;;6.95;3.22;;;;;;;8.66;76.72;97629.28;4883832;29;20061;-79
2024/02/20 04:32:35;;;;;;;6.20;3.20;;;;;;;8.64;76.91;97624.22;4888962;29;20139;-82
2024/02/20 04:35:05;;;;;;;5.00;3.90;;;;;;;8.62;77.11;97626.13;4898567;29;20052;-79
2024/02/20 04:37:32;;;;;;;3.67;3.03;;;;;;;8.60;76.63;97630.66;4892395;29;20053;-84
2024/02/20 04:40:00;;;;;;;5.22;3.65;;;;;;;8.57;76.31;97643.13;4899838;29;20130;-78
2024/02/20 04:42:27;;;;;;;6.68;3.28;;;;;;;8.54;76.50;97640.81;4892087;29;20058;-86
2024/02/20 04:44:56;;;;;;;9.52;3.88;;;;;;;8.51;76.18;97644.53;4902273;29;20048;-83
2024/02/20 04:47:24;;;;;;;6.72;3.25;;;;;;;8.47;75.81;97645.75;4900559;29;20057;-83
2024/02/20 04:49:52;;;;;;;10.00;3.28;;;;;;;8.43;75.71;97650.41;4902803;29;20135;-77
2024/02/20 04:52:20;;;;;;;5.65;3.33;;;;;;;8.38;75.61;97657.00;4900587;29;20060;-78
2024/02/20 04:54:47;;;;;;;7.00;2.92;;;;;;;8.32;75.39;97652.34;4898633;29;20074;-79
2024/02/20 04:57:15;;;;;;;5.05;3.10;;;;;;;8.27;75.59;97659.78;4899935;29;20052;-80
2024/02/20 04:59:43;;;;;;;6.40;2.95;;;;;;;8.23;75.69;97664.41;4901426;29;20062;-83
2024/02/20 05:02:16;;;;;;;8.25;3.08;;;;;;;8.19;76.07;97653.47;4888156;29;20063;-84
2024/02/20 05:04:44;;;;;;;8.80;3.03;;;;;;;8.17;75.68;97665.78;4899668;29;20057;-76
2024/02/20 05:07:13;;;;;;;7.10;3.00;;;;;;;8.16;75.88;97664.16;4903265;29;20112;-77
2024/02/20 05:09:40;;;;;;;7.10;2.85;;;;;;;8.15;75.75;97667.69;4904550;29;20116;-81
2024/02/20 05:12:08;;;;;;;10.98;3.50;;;;;;;8.13;75.88;97664.41;4889897;29;20080;-78
2024/02/20 05:14:35;;;;;;;8.00;3.58;;;;;;;8.12;76.16;97659.38;4885032;29;20055;-78
2024/02/20 05:17:03;;;;;;;9.93;3.97;;;;;;;8.11;76.27;97676.75;4900830;29;20059;-78
2024/02/20 05:19:32;;;;;;;8.82;3.05;;;;;;;8.10;75.98;97671.69;4904728;29;20147;-78
2024/02/20 05:22:00;;;;;;;10.73;3.28;;;;;;;8.09;75.91;97675.25;4905153;29;20402;-81
2024/02/20 05:24:27;;;;;;;6.55;3.00;;;;;;;8.05;76.08;97677.31;4897812;29;20496;-78
2024/02/20 05:26:55;;;;;;;6.05;3.13;;;;;;;8.04;75.61;97678.25;4894216;29;20127;-81
2024/02/20 05:29:22;;;;;;;6.55;2.88;;;;;;;8.00;75.47;97682.09;4886095;29;20053;-77
2024/02/20 05:31:50;;;;;;;10.15;3.60;;;;;;;7.97;75.38;97679.78;4886642;29;20449;-85
2024/02/20 05:34:18;;;;;;;12.10;3.38;;;;;;;7.94;75.33;97680.88;4885913;29;20137;-83
2024/02/20 05:36:47;;;;;;;12.88;3.55;;;;;;;7.89;74.96;97687.44;4897587;29;20428;-76
2024/02/20 05:39:14;;;;;;;11.93;4.15;;;;;;;7.87;75.70;97689.34;4895019;29;20086;-76
2024/02/20 05:41:42;;;;;;;30.60;15.07;;;;;;;7.87;75.68;97687.59;4900878;29;20196;-76
2024/02/20 05:44:09;;;;;;;35.80;16.45;;;;;;;7.88;76.21;97691.00;4886465;29;20128;-80
2024/02/20 05:46:39;;;;;;;16.58;5.40;;;;;;;7.89;75.53;97690.03;4898273;29;20079;-79
2024/02/20 05:49:07;;;;;;;11.63;4.25;;;;;;;7.87;75.78;97687.59;4896510;29;20049;-77
2024/02/20 05:51:35;;;;;;;16.90;3.72;;;;;;;7.87;75.96;97695.41;4899568;29;20064;-77
2024/02/20 05:54:05;;;;;;;15.68;3.95;;;;;;;7.86;75.30;97692.91;4902444;29;20052;-81
2024/02/20 05:56:33;;;;;;;12.13;4.35;;;;;;;7.83;75.70;97692.25;4897429;29;20084;-80
2024/02/20 05:59:00;;;;;;;9.45;3.70;;;;;;;7.84;75.87;97696.47;4885356;29;20076;-81
2024/02/20 06:01:28;;;;;;;9.00;3.88;;;;;;;7.86;75.53;97700.72;4895190;29;20087;-79
2024/02/20 06:03:56;;;;;;;8.52;3.15;;;;;;;7.83;75.15;97705.22;4888569;29;20406;-78
2024/02/20 06:09:51;;;;;;;12.82;3.90;;;;;;;7.80;75.64;97705.47;5678975;23;20114;-82
2024/02/20 06:12:23;;;;;;;8.35;3.30;;;;;;;7.78;75.11;97704.81;4966745;29;20058;-83
2024/02/20 06:14:50;;;;;;;13.45;4.03;;;;;;;7.73;75.25;97707.00;4958762;29;20131;-82
2024/02/20 06:17:18;;;;;;;11.63;3.80;;;;;;;7.70;75.67;97715.06;4941452;29;20476;-82
2024/02/20 06:19:45;;;;;;;20.40;4.38;;;;;;;7.67;75.45;97723.13;4941881;29;20059;-82
2024/02/20 06:22:13;;;;;;;12.38;3.95;;;;;;;7.64;75.46;97726.81;4942490;29;20059;-83
2024/02/20 06:24:41;;;;;;;10.70;3.60;;;;;;;7.62;75.87;97733.09;4941360;29;20073;-82
2024/02/20 06:27:09;;;;;;;10.68;4.05;;;;;;;7.60;76.76;97735.00;4941167;29;20053;-82
2024/02/20 06:29:38;;;;;;;17.48;4.75;;;;;;;7.56;76.16;97738.81;4941421;29;20468;-82
2024/02/20 06:32:06;;;;;;;23.17;5.28;;;;;;;7.50;76.30;97739.34;4941519;29;20056;-80
2024/02/20 06:34:35;;;;;;;12.95;4.38;;;;;;;7.46;76.59;97735.41;4942609;29;20126;-81
2024/02/20 06:37:03;;;;;;;17.40;4.38;;;;;;;7.49;77.13;97740.31;4941673;29;20094;-83
2024/02/20 06:39:31;;;;;;;14.40;4.40;;;;;;;7.50;77.05;97741.94;4942347;29;20504;-82
2024/02/20 06:41:59;;;;;;;16.92;4.65;;;;;;;7.51;76.86;97751.41;4941563;29;20079;-82
2024/02/20 06:44:27;;;;;;;20.25;5.70;;;;;;;7.49;76.43;97748.13;4941914;29;20082;-83
2024/02/20 06:46:56;;;;;;;12.60;4.60;;;;;;;7.44;76.71;97756.31;4940626;29;20087;-82
2024/02/20 06:49:23;;;;;;;19.48;4.95;;;;;;;7.40;77.18;97755.75;4942042;29;20079;-82
2024/02/20 06:51:51;;;;;;;18.67;6.15;;;;;;;7.41;77.27;97762.59;4941227;29;20047;-82
2024/02/20 06:54:19;;;;;;;15.70;4.80;;;;;;;7.42;76.96;97764.22;4942291;29;20043;-81
2024/02/20 06:56:50;;;;;;;13.25;4.63;;;;;;;7.43;76.98;97765.03;4941878;29;20508;-83
2024/02/20 06:59:17;;;;;;;13.98;4.32;;;;;;;7.44;77.75;97771.88;4942344;29;20079;-82
2024/02/20 07:01:45;;;;;;;16.50;4.22;;;;;;;7.43;77.49;97770.22;4941860;29;20043;-81
2024/02/20 07:04:14;;;;;;;11.45;4.60;;;;;;;7.44;77.20;97771.88;4941322;29;20074;-81
2024/02/20 07:06:42;;;;;;;15.73;4.88;;;;;;;7.46;77.18;97775.16;4942351;29;20051;-82
2024/02/20 07:09:10;;;;;;;8.48;4.63;;;;;;;7.47;76.79;97784.59;4941401;29;20056;-82
2024/02/20 07:11:38;;;;;;;18.30;5.85;;;;;;;7.46;76.98;97771.75;4941486;29;20563;-81
2024/02/20 07:14:07;;;;;;;13.43;5.53;;;;;;;7.49;77.95;97782.69;4941836;29;20056;-82
2024/02/20 07:16:35;;;;;;;15.13;6.20;;;;;;;7.52;77.48;97785.03;4941637;29;20094;-81
2024/02/20 07:19:03;;;;;;;17.02;5.78;;;;;;;7.58;77.36;97788.84;4941919;29;20055;-82
2024/02/20 07:21:32;;;;;;;13.43;5.43;;;;;;;7.61;76.66;97796.38;4941401;29;20060;-81
2024/02/20 07:24:00;;;;;;;15.65;5.97;;;;;;;7.62;76.83;97806.63;4942488;29;20412;-83
2024/02/20 07:26:27;;;;;;;20.08;7.00;;;;;;;7.61;76.99;97798.97;4941725;29;20527;-82
2024/02/20 07:28:55;;;;;;;18.85;6.25;;;;;;;7.60;76.82;97808.53;4941618;29;20504;-82
2024/02/20 07:31:23;;;;;;;13.32;5.57;;;;;;;7.62;77.83;97803.22;4943049;29;20052;-81
2024/02/20 07:33:51;;;;;;;16.10;5.18;;;;;;;7.60;76.91;97802.53;4956329;29;20108;-82
2024/02/20 07:36:36;;;;;;;13.77;5.10;;;;;;;7.55;76.90;97805.53;4941399;29;20107;-82
2024/02/20 07:39:04;;;;;;;10.40;4.20;;;;;;;7.57;77.78;97808.00;4940961;29;20056;-81
2024/02/20 07:41:32;;;;;;;9.43;4.40;;;;;;;7.63;77.93;97808.28;4941973;29;20055;-82
2024/02/20 07:44:00;;;;;;;13.75;5.00;;;;;;;7.64;76.73;97806.50;4941225;29;20052;-82
2024/02/20 07:46:28;;;;;;;16.45;5.35;;;;;;;7.63;75.88;97813.47;4943885;29;20052;-81
2024/02/20 07:48:55;;;;;;;12.80;4.70;;;;;;;7.60;75.86;97812.91;4942607;29;20047;-82
2024/02/20 07:51:23;;;;;;;19.55;6.22;;;;;;;7.56;75.64;97816.72;4942090;29;20058;-82
2024/02/20 07:53:53;;;;;;;20.60;7.55;;;;;;;7.54;76.82;97822.06;4941788;29;20106;-82
2024/02/20 07:56:23;;;;;;;14.00;5.20;;;;;;;7.53;76.64;97822.19;4942720;29;20071;-83
2024/02/20 07:58:51;;;;;;;17.63;6.53;;;;;;;7.52;76.67;97820.53;4942071;29;20055;-82
2024/02/20 08:01:19;;;;;;;16.20;4.72;;;;;;;7.47;75.99;97825.31;4940732;29;20059;-81
2024/02/20 08:03:52;;;;;;;13.70;4.50;;;;;;;7.48;76.94;97821.75;4942932;29;20431;-83
2024/02/20 08:06:20;;;;;;;13.80;4.47;;;;;;;7.53;77.16;97828.19;4945319;29;20052;-82
2024/02/20 08:08:48;;;;;;;9.98;3.55;;;;;;;7.59;76.77;97832.06;4943708;29;20056;-82
2024/02/20 08:11:17;;;;;;;10.23;3.95;;;;;;;7.60;77.62;97837.09;4941219;29;20052;-81
2024/02/20 08:13:46;;;;;;;19.90;4.93;;;;;;;7.60;76.41;97829.31;4941779;29;20047;-82
2024/02/20 08:16:15;;;;;;;15.40;4.28;;;;;;;7.58;75.84;97835.59;4941254;29;20055;-82
2024/02/20 08:18:44;;;;;;;16.42;5.07;;;;;;;7.59;76.18;97832.88;4941339;29;20048;-82
2024/02/20 08:21:12;;;;;;;12.52;3.67;;;;;;;7.59;76.26;97837.25;4941954;29;20087;-82
2024/02/20 08:23:42;;;;;;;13.02;4.13;;;;;;;7.59;75.99;97838.06;4941924;29;20079;-82
2024/02/20 08:26:10;;;;;;;11.48;4.18;;;;;;;7.62;76.04;97842.16;4941778;29;20138;-83
2024/02/20 08:28:41;;;;;;;15.35;3.95;;;;;;;7.64;75.02;97850.66;4941490;29;20055;-82
2024/02/20 08:31:10;;;;;;;11.97;4.67;;;;;;;7.63;75.47;97849.00;4941797;29;20052;-83
2024/02/20 08:33:37;;;;;;;13.90;4.43;;;;;;;7.66;75.82;97837.53;4941994;29;20048;-82
2024/02/20 08:36:05;;;;;;;15.68;4.70;;;;;;;7.70;75.60;97850.13;4942006;29;20079;-82
2024/02/20 08:38:33;;;;;;;12.32;4.10;;;;;;;7.76;74.98;97841.81;4941698;29;20051;-81
2024/02/20 08:41:01;;;;;;;15.10;4.45;;;;;;;7.83;75.41;97840.31;4941722;29;20078;-81
2024/02/20 08:43:28;;;;;;;13.88;3.72;;;;;;;7.87;74.19;97842.63;4941723;29;20056;-82
2024/02/20 08:45:58;;;;;;;9.48;3.28;;;;;;;7.90;73.81;97844.97;4941506;29;20453;-82
2024/02/20 08:48:26;;;;;;;16.13;4.05;;;;;;;7.92;73.26;97848.25;4942144;29;20060;-82
2024/02/20 08:50:54;;;;;;;17.33;5.28;;;;;;;7.86;72.87;97852.19;4939498;29;20419;-82
2024/02/20 08:53:21;;;;;;;13.00;4.55;;;;;;;7.82;73.30;97848.22;4940452;29;20102;-82
2024/02/20 08:55:50;;;;;;;15.85;4.32;;;;;;;7.83;73.33;97861.09;4944209;29;20082;-82
2024/02/20 08:58:19;;;;;;;12.88;3.40;;;;;;;7.82;72.58;97859.44;4942918;29;20083;-82
2024/02/20 09:00:47;;;;;;;12.63;4.68;;;;;;;7.78;71.87;97849.44;4941054;29;20075;-82
2024/02/20 09:03:16;;;;;;;10.13;4.22;;;;;;;7.72;71.28;97861.19;4941017;29;20483;-82
2024/02/20 09:05:44;;;;;;;15.43;4.72;;;;;;;7.69;72.13;97860.63;4941418;29;20111;-82
2024/02/20 09:08:12;;;;;;;10.30;3.70;;;;;;;7.78;72.75;97850.28;4942346;29;20083;-82
2024/02/20 09:10:40;;;;;;;9.57;3.13;;;;;;;7.87;72.00;97855.63;4941194;29;20089;-84
2024/02/20 09:13:08;;;;;;;12.75;3.40;;;;;;;7.91;72.06;97860.41;4941811;29;20114;-82
2024/02/20 09:15:36;;;;;;;12.25;3.88;;;;;;;7.98;72.22;97864.13;4942017;29;20078;-83
2024/02/20 09:18:04;;;;;;;14.30;4.35;;;;;;;8.02;71.82;97869.88;4940963;29;20116;-81
2024/02/20 09:20:36;;;;;;;13.27;4.03;;;;;;;7.99;70.33;97870.97;4943257;29;20130;-82
2024/02/20 09:23:07;;;;;;;16.95;3.90;;;;;;;7.93;70.57;97870.66;4942887;29;20416;-83
2024/02/20 09:25:34;;;;;;;13.15;3.72;;;;;;;7.91;69.56;97872.59;4942879;29;20079;-82
2024/02/20 09:28:02;;;;;;;9.02;3.03;;;;;;;7.87;69.94;97871.19;4943824;29;20116;-82
2024/02/20 09:30:30;;;;;;;12.20;3.10;;;;;;;7.92;71.27;97874.25;4942805;29;20064;-82
2024/02/20 09:32:58;;;;;;;10.98;3.58;;;;;;;8.01;71.86;97886.44;4942603;29;20058;-82
2024/02/20 09:35:26;;;;;;;10.48;3.83;;;;;;;8.09;70.71;97881.38;4941580;29;20504;-82
2024/02/20 09:37:55;;;;;;;11.02;3.78;;;;;;;8.08;68.96;97879.72;4954614;29;20051;-82
2024/02/20 09:40:23;;;;;;;14.10;3.50;;;;;;;8.06;69.48;97876.44;4943911;29;20052;-82
2024/02/20 09:42:51;;;;;;;12.93;3.60;;;;;;;7.98;68.56;97889.28;4940289;29;20073;-82
2024/02/20 09:45:22;;;;;;;9.75;3.60;;;;;;;7.96;68.64;97888.59;4940488;29;20062;-81
2024/02/20 09:47:50;;;;;;;10.65;3.90;;;;;;;7.98;69.40;97891.88;4941139;29;20047;-81
2024/02/20 09:50:23;;;;;;;10.27;3.20;;;;;;;8.07;70.04;97896.28;4941043;29;20111;-82
2024/02/20 09:52:54;;;;;;;10.52;4.47;;;;;;;8.17;69.27;97889.31;4940944;29;20071;-82
2024/02/20 09:55:26;;;;;;;15.65;3.55;;;;;;;8.23;68.28;97899.16;4945123;29;20051;-81
2024/02/20 09:57:54;;;;;;;12.98;3.17;;;;;;;8.32;67.61;97896.72;4946363;29;20056;-82
2024/02/20 10:00:22;;;;;;;13.52;4.05;;;;;;;8.51;67.92;97885.56;4945517;29;20052;-83
2024/02/20 10:02:53;;;;;;;7.55;2.70;;;;;;;8.74;67.45;97886.06;4945594;29;20051;-83
2024/02/20 10:05:20;;;;;;;8.27;3.08;;;;;;;8.93;67.64;97883.44;4945856;29;20055;-81
2024/02/20 10:07:58;;;;;;;12.57;3.38;;;;;;;9.08;64.89;97883.84;4945301;29;20060;-81
2024/02/20 10:10:28;;;;;;;12.50;3.42;;;;;;;9.13;64.97;97883.41;4946343;29;20138;-81
2024/02/20 10:13:00;;;;;;;17.92;3.83;;;;;;;9.39;63.81;97886.22;4945955;29;20087;-82
2024/02/20 10:15:29;;;;;;;13.10;4.30;;;;;;;9.59;63.67;97885.16;4945846;29;20048;-81
2024/02/20 10:18:01;;;;;;;10.57;3.05;;;;;;;9.74;61.44;97890.72;4945738;29;20073;-81
2024/02/20 10:20:30;;;;;;;8.15;2.83;;;;;;;10.02;62.88;97890.72;4945945;29;20496;-81
2024/02/20 10:23:06;;;;;;;8.82;2.72;;;;;;;10.12;59.56;97883.66;4945479;29;20087;-81
2024/02/20 10:25:35;;;;;;;9.65;2.38;;;;;;;10.16;62.25;97885.00;4945323;29;20079;-81
2024/02/20 10:28:05;;;;;;;12.25;2.85;;;;;;;10.08;60.91;97888.34;4945766;29;20500;-81
2024/02/20 10:30:34;;;;;;;9.57;2.47;;;;;;;9.93;59.72;97894.19;4945577;29;20044;-81
2024/02/20 10:33:02;;;;;;;7.43;2.70;;;;;;;9.84;60.23;97886.31;4944491;29;20574;-81
2024/02/20 10:35:30;;;;;;;10.90;2.85;;;;;;;9.81;60.49;97881.34;4944625;29;20099;-81
2024/02/20 10:38:02;;;;;;;6.50;2.92;;;;;;;9.79;59.92;97893.72;4944056;29;20050;-81
2024/02/20 10:40:32;;;;;;;6.00;1.85;;;;;;;9.76;60.82;97886.19;4944656;29;20056;-81
2024/02/20 10:43:01;;;;;;;8.13;2.72;;;;;;;9.71;60.24;97885.81;4944715;29;20052;-81
2024/02/20 10:45:30;;;;;;;9.10;2.90;;;;;;;9.79;61.48;97883.28;4944498;29;20047;-81
2024/02/20 10:47:59;;;;;;;7.07;2.45;;;;;;;10.03;60.79;97881.94;4945531;29;20055;-81
2024/02/20 10:50:31;;;;;;;4.50;1.98;;;;;;;10.11;58.54;97888.03;4945031;29;20058;-81
2024/02/20 10:53:01;;;;;;;7.53;3.00;;;;;;;10.10;58.19;97890.78;4944796;29;20075;-81
2024/02/20 10:55:31;;;;;;;8.07;3.13;;;;;;;10.04;57.64;97891.41;4944420;29;20044;-81
2024/02/20 10:58:04;;;;;;;9.82;3.08;;;;;;;10.17;57.50;97881.44;4942634;29;20048;-81
2024/02/20 11:00:35;;;;;;;8.88;1.98;;;;;;;10.44;56.83;97887.59;4943160;29;20527;-81
2024/02/20 11:03:08;;;;;;;8.45;2.58;;;;;;;10.62;57.07;97891.00;4945261;29;20056;-81
2024/02/20 11:05:36;;;;;;;6.18;2.33;;;;;;;10.68;57.49;97879.97;4944853;29;20063;-80
2024/02/20 11:08:07;;;;;;;7.38;2.38;;;;;;;10.64;56.24;97881.22;4945296;29;20107;-81
2024/02/20 11:10:36;;;;;;;8.80;2.15;;;;;;;10.59;58.10;97880.06;4951219;29;20051;-81
2024/02/20 11:13:13;;;;;;;8.00;3.63;;;;;;;10.63;57.36;97881.41;4954970;29;20079;-81
2024/02/20 11:15:42;;;;;;;9.57;5.28;;;;;;;10.78;56.54;97879.06;4947938;29;20584;-80
2024/02/20 11:18:18;;;;;;;10.70;4.78;;;;;;;11.00;56.52;97878.59;4944760;29;20048;-80
2024/02/20 11:20:50;;;;;;;7.38;3.10;;;;;;;11.26;55.70;97868.13;4944374;29;20056;-81
2024/02/20 11:23:17;;;;;;;4.78;1.80;;;;;;;11.54;54.12;97876.63;4944334;29;20047;-81
2024/02/20 11:25:46;;;;;;;14.93;4.53;;;;;;;11.67;53.67;97865.69;4944709;29;20067;-81
2024/02/20 11:28:17;;;;;;;12.30;6.65;;;;;;;11.61;53.16;97866.34;4944921;29;20147;-81
2024/02/20 11:30:46;;;;;;;5.53;2.58;;;;;;;11.41;53.68;97873.59;4945989;29;20159;-81
2024/02/20 11:33:16;;;;;;;10.88;4.85;;;;;;;11.21;52.83;97864.34;4945008;29;20070;-81
2024/02/20 11:35:47;;;;;;;7.53;2.83;;;;;;;11.14;52.93;97867.56;4944963;29;20090;-81
2024/02/20 11:38:21;;;;;;;8.63;3.10;;;;;;;11.10;53.32;97863.63;4945002;29;20567;-81
2024/02/20 11:40:50;;;;;;;6.38;2.60;;;;;;;11.17;54.16;97858.59;4945256;29;20091;-80
2024/02/20 11:43:21;;;;;;;8.68;2.85;;;;;;;11.32;53.39;97848.41;4956746;28;20070;-81
2024/02/20 11:45:57;;;;;;;11.65;5.30;;;;;;;11.42;51.65;97849.13;4945904;29;20054;-80